Time;durP1;ratioP1;P1;durP2;ratioP2;P2;SDS_P1;SDS_P2;PMS_P1;PMS_P2;Temp;Humidity;BMP_temperature;BMP_pressure;BME280_temperature;BME280_humidity;BME280_pressure;Samples;Min_cycle;Max_cycle;Signal;HPM_P1;HPM_P2
2023/05/09 00:00:05;;;;;;;16.55;12.57;;;15.10;99.90;;;18.00;60.48;97901.78;5014058;28;20046;-37
2023/05/09 00:02:33;;;;;;;15.63;12.32;;;15.10;99.90;;;17.99;60.74;97891.22;5013795;28;20050;-37
2023/05/09 00:05:04;;;;;;;15.32;12.65;;;15.10;99.90;;;17.99;60.68;97893.91;5013999;28;20050;-36
2023/05/09 00:07:32;;;;;;;15.60;12.02;;;15.10;99.90;;;18.00;60.64;97888.31;5013603;28;20068;-36
2023/05/09 00:10:00;;;;;;;18.10;13.80;;;15.10;99.90;;;18.01;60.73;97887.31;5013681;28;20049;-36
2023/05/09 00:12:28;;;;;;;15.70;12.63;;;15.10;99.90;;;18.05;60.74;97895.81;5004378;28;20102;-36
2023/05/09 00:14:56;;;;;;;17.85;13.70;;;15.10;99.90;;;18.03;60.38;97887.94;5013817;28;20038;-37
2023/05/09 00:17:24;;;;;;;16.30;11.73;;;15.10;99.90;;;18.02;60.74;97886.25;5013606;28;20046;-36
2023/05/09 00:19:52;;;;;;;14.93;12.02;;;15.20;99.90;;;18.06;60.69;97884.81;5013353;28;20529;-36
2023/05/09 00:22:20;;;;;;;17.63;14.23;;;15.20;99.90;;;18.08;60.51;97876.53;5013578;28;20057;-37
2023/05/09 00:24:48;;;;;;;17.17;11.70;;;15.30;99.90;;;18.10;60.72;97877.97;5013474;28;20497;-37
2023/05/09 00:27:16;;;;;;;16.27;12.45;;;15.30;99.90;;;18.14;60.52;97875.72;4995250;28;20499;-36
2023/05/09 00:29:43;;;;;;;16.42;12.45;;;15.30;99.90;;;18.17;60.44;97866.41;4995762;28;20052;-37
2023/05/09 00:32:11;;;;;;;16.05;12.10;;;15.30;99.90;;;18.17;60.33;97872.63;4995467;28;20502;-37
2023/05/09 00:34:39;;;;;;;16.35;12.38;;;15.40;99.90;;;18.13;60.31;97878.63;4995662;28;20056;-37
2023/05/09 00:37:06;;;;;;;15.45;12.20;;;15.30;99.90;;;18.08;60.35;97863.88;4995857;28;20073;-37
2023/05/09 00:39:34;;;;;;;16.00;12.60;;;15.20;99.90;;;18.06;60.32;97868.66;4995424;28;20586;-37
2023/05/09 00:42:02;;;;;;;19.45;13.88;;;15.20;99.90;;;18.06;60.46;97865.94;5004030;28;20049;-37
2023/05/09 00:44:30;;;;;;;18.30;12.82;;;15.20;99.90;;;18.08;60.53;97860.38;5013201;28;20056;-37
2023/05/09 00:46:58;;;;;;;17.92;13.48;;;15.20;99.90;;;18.14;60.35;97864.13;4995816;28;20042;-37
2023/05/09 00:49:26;;;;;;;17.80;12.88;;;15.30;99.90;;;18.14;60.09;97856.03;5010777;28;20053;-37
2023/05/09 00:51:55;;;;;;;17.75;13.50;;;15.30;99.90;;;18.12;60.09;97850.84;5012784;28;20057;-37
2023/05/09 00:54:23;;;;;;;18.83;13.55;;;15.30;99.90;;;18.12;60.11;97847.31;5013217;28;20418;-37
2023/05/09 00:56:51;;;;;;;17.13;13.80;;;15.20;99.90;;;18.11;59.92;97849.19;4994865;28;20395;-37
2023/05/09 00:59:19;;;;;;;18.48;13.55;;;15.20;99.90;;;18.10;59.93;97852.91;4978337;28;20054;-37
2023/05/09 01:01:46;;;;;;;17.20;13.40;;;15.20;99.90;;;18.04;59.98;97849.16;5010933;28;20046;-37
2023/05/09 01:04:15;;;;;;;14.73;12.70;;;15.10;99.90;;;18.03;59.95;97850.22;5012999;28;20049;-37
2023/05/09 01:06:54;;;;;;;16.40;12.00;;;15.10;99.90;;;18.06;60.09;97840.88;5012620;28;20042;-37
2023/05/09 01:09:34;;;;;;;19.85;12.52;;;15.10;99.90;;;18.07;59.94;97829.91;4995178;28;20469;-37
2023/05/09 01:12:52;;;;;;;17.23;12.90;;;15.10;99.90;;;18.06;59.97;97833.63;5004763;28;20106;-37
2023/05/09 01:15:29;;;;;;;16.35;13.80;;;15.20;99.90;;;18.10;59.91;97836.75;5007184;28;20055;-37
2023/05/09 01:18:32;;;;;;;16.17;12.38;;;15.20;99.90;;;18.07;59.91;97832.59;5001487;28;20046;-37
2023/05/09 01:21:13;;;;;;;17.77;13.23;;;15.20;99.90;;;18.07;60.00;97835.31;4994182;28;20053;-37
2023/05/09 01:23:43;;;;;;;16.00;12.45;;;15.10;99.90;;;18.06;59.89;97835.50;5003869;28;20046;-37
2023/05/09 01:26:46;;;;;;;18.27;15.05;;;15.10;99.90;;;18.00;60.01;97829.06;4994866;28;20046;-37
2023/05/09 01:29:44;;;;;;;19.10;13.98;;;15.20;99.90;;;18.03;60.16;97833.19;5012264;28;20037;-37
2023/05/09 01:32:25;;;;;;;16.27;13.38;;;15.10;99.90;;;18.04;60.13;97829.47;4977345;28;20390;-37
2023/05/09 01:34:58;;;;;;;18.17;12.63;;;15.10;99.90;;;18.03;60.17;97825.97;4985845;28;20057;-37
2023/05/09 01:37:31;;;;;;;16.55;13.10;;;15.10;99.90;;;18.03;59.96;97819.72;4994623;28;20048;-37
2023/05/09 01:40:10;;;;;;;17.67;13.02;;;15.10;99.90;;;18.06;60.09;97816.63;4994494;28;20041;-37
2023/05/09 01:42:53;;;;;;;16.45;13.38;;;15.20;99.90;;;18.04;59.98;97816.84;5012011;28;20521;-37
2023/05/09 01:45:23;;;;;;;16.77;13.10;;;15.10;99.90;;;18.03;60.21;97817.03;5003392;28;20056;-36
2023/05/09 01:47:52;;;;;;;19.98;13.98;;;15.10;99.90;;;18.06;60.21;97816.63;5011849;28;20049;-35
2023/05/09 01:50:21;;;;;;;19.00;14.75;;;15.20;99.90;;;18.07;60.21;97810.22;4977239;28;20418;-36
2023/05/09 01:52:54;;;;;;;16.60;13.70;;;15.20;99.90;;;18.10;60.15;97805.25;4984115;28;20050;-35
2023/05/09 01:55:26;;;;;;;17.88;13.15;;;15.20;99.90;;;18.16;59.98;97805.47;4986648;28;20045;-35
2023/05/09 01:57:57;;;;;;;18.23;14.30;;;15.30;99.90;;;18.15;60.19;97803.81;4986174;28;20054;-36
2023/05/09 02:00:25;;;;;;;18.25;13.25;;;15.30;99.90;;;18.18;59.93;97811.47;4994120;28;20069;-36
2023/05/09 02:02:55;;;;;;;19.67;14.77;;;15.30;99.90;;;18.18;59.84;97814.16;5011615;28;20048;-36
2023/05/09 02:05:28;;;;;;;16.40;12.48;;;15.30;99.90;;;18.16;59.93;97824.31;4993698;28;20057;-36
2023/05/09 02:07:57;;;;;;;20.75;13.90;;;15.20;99.90;;;18.13;59.96;97827.44;5011566;28;20049;-36
2023/05/09 02:10:27;;;;;;;21.70;13.60;;;15.10;99.90;;;18.07;59.81;97819.13;4994157;28;20045;-36
2023/05/09 02:12:56;;;;;;;17.58;13.73;;;15.10;99.90;;;18.08;60.08;97814.56;4993998;28;20069;-36
2023/05/09 02:15:24;;;;;;;17.83;13.35;;;15.10;99.90;;;18.09;60.06;97816.25;4978049;28;20050;-35
2023/05/09 02:17:52;;;;;;;19.52;13.57;;;15.10;99.90;;;18.06;60.22;97814.78;4993813;28;20072;-36
2023/05/09 02:20:19;;;;;;;18.40;13.77;;;15.10;99.90;;;18.07;60.17;97808.34;4991595;28;20048;-36
2023/05/09 02:22:47;;;;;;;19.52;13.20;;;15.10;99.90;;;18.07;60.28;97799.47;4993768;28;20057;-35
2023/05/09 02:25:17;;;;;;;18.80;13.75;;;15.20;99.90;;;18.07;60.24;97796.75;4994167;28;20041;-36
2023/05/09 02:27:45;;;;;;;18.25;13.35;;;15.20;99.90;;;18.07;60.21;97802.97;5001965;28;20054;-36
2023/05/09 02:30:23;;;;;;;17.50;13.13;;;15.30;99.90;;;18.07;60.22;97796.75;4994315;28;20049;-36
2023/05/09 02:32:58;;;;;;;17.83;12.50;;;15.30;99.90;;;18.06;60.24;97798.59;4998268;28;20065;-36
2023/05/09 02:35:26;;;;;;;17.20;12.13;;;15.30;99.90;;;18.07;60.53;97791.38;4993558;28;20490;-36
2023/05/09 02:37:57;;;;;;;16.30;12.77;;;15.40;99.90;;;18.07;60.26;97794.06;4985510;28;20050;-36
2023/05/09 02:40:29;;;;;;;19.50;13.93;;;15.30;99.90;;;18.07;60.10;97794.06;4994195;28;20069;-36
2023/05/09 02:42:57;;;;;;;19.15;14.13;;;15.30;99.90;;;18.03;60.16;97790.94;5011468;28;20045;-36
2023/05/09 02:45:25;;;;;;;20.98;14.13;;;15.20;99.90;;;17.99;60.32;97781.63;5011421;28;20038;-36
2023/05/09 02:47:52;;;;;;;19.77;12.60;;;15.20;99.90;;;17.98;60.17;97788.03;4993393;28;20524;-36
2023/05/09 02:50:22;;;;;;;16.17;12.43;;;15.20;99.90;;;17.81;60.44;97782.16;4993199;28;20421;-36
2023/05/09 02:52:50;;;;;;;18.52;12.82;;;15.10;99.90;;;17.75;60.49;97782.97;4993825;28;20050;-36
2023/05/09 02:55:17;;;;;;;18.65;14.15;;;15.10;99.90;;;17.70;60.65;97783.59;5011314;28;20034;-36
2023/05/09 02:57:45;;;;;;;17.05;12.63;;;15.10;99.90;;;17.67;60.75;97778.63;5011198;28;20049;-36
2023/05/09 03:00:14;;;;;;;19.45;13.38;;;15.00;99.90;;;17.66;60.84;97785.06;4994116;28;20058;-36
2023/05/09 03:02:42;;;;;;;18.10;13.43;;;14.90;99.90;;;17.67;60.92;97773.22;5011678;28;20050;-36
2023/05/09 03:05:16;;;;;;;16.25;11.95;;;14.90;99.90;;;17.70;60.60;97789.00;4992773;28;20050;-36
2023/05/09 03:07:44;;;;;;;16.00;11.70;;;14.90;99.90;;;17.64;60.66;97781.72;4977308;28;20497;-36
2023/05/09 03:10:12;;;;;;;16.45;13.15;;;14.80;99.90;;;17.55;60.79;97774.03;5011088;28;20071;-36
2023/05/09 03:12:42;;;;;;;17.23;12.80;;;14.70;99.90;;;17.50;60.85;97775.44;4993595;28;20069;-36
2023/05/09 03:15:10;;;;;;;17.05;12.73;;;14.60;99.90;;;17.46;60.81;97771.50;4985798;28;20062;-36
2023/05/09 03:17:40;;;;;;;15.80;12.55;;;14.60;99.90;;;17.45;61.02;97777.13;5014606;28;20045;-36
2023/05/09 03:20:09;;;;;;;18.70;12.93;;;14.50;99.90;;;17.46;61.04;97768.00;4997703;28;20421;-36
2023/05/09 03:22:36;;;;;;;19.63;13.38;;;14.60;99.90;;;17.45;60.87;97767.19;4996685;28;20081;-36
2023/05/09 03:25:07;;;;;;;16.33;12.45;;;14.60;99.90;;;17.42;61.12;97764.06;4996908;28;20045;-36
2023/05/09 03:27:35;;;;;;;17.15;12.20;;;14.60;99.90;;;17.43;61.02;97760.34;4996408;28;20057;-36
2023/05/09 03:30:05;;;;;;;19.95;13.40;;;14.60;99.90;;;17.43;61.19;97753.09;4996483;28;20053;-36
2023/05/09 03:32:33;;;;;;;20.92;13.45;;;14.60;99.90;;;17.41;61.03;97760.53;4980929;28;20061;-36
2023/05/09 03:35:01;;;;;;;20.05;13.63;;;14.60;99.90;;;17.39;61.05;97762.59;4996855;28;20050;-36
2023/05/09 03:37:28;;;;;;;19.23;13.38;;;14.50;99.90;;;17.36;61.16;97770.25;4996506;28;20046;-36
2023/05/09 03:39:56;;;;;;;16.67;11.95;;;14.50;99.90;;;17.34;61.12;97770.44;4996383;28;20057;-36
2023/05/09 03:42:25;;;;;;;17.15;13.02;;;14.40;99.90;;;17.35;61.08;97760.50;4996759;28;20421;-36
2023/05/09 03:44:57;;;;;;;17.75;11.80;;;14.40;99.90;;;17.34;61.17;97767.75;4996628;28;20046;-36
2023/05/09 03:47:24;;;;;;;17.90;12.15;;;14.50;99.90;;;17.35;61.47;97755.13;5014227;28;20065;-36
2023/05/09 03:49:52;;;;;;;20.60;15.10;;;14.40;99.90;;;17.37;61.39;97759.28;5014222;28;20050;-36
2023/05/09 03:52:22;;;;;;;17.58;13.38;;;14.50;99.90;;;17.42;61.49;97758.66;4996036;28;20037;-36
2023/05/09 03:54:50;;;;;;;19.30;13.35;;;14.50;99.90;;;17.48;61.42;97752.47;4996040;28;20053;-36
2023/05/09 03:57:18;;;;;;;15.82;11.77;;;14.60;99.90;;;17.49;61.48;97756.84;4996003;28;20037;-36
2023/05/09 03:59:48;;;;;;;17.42;13.05;;;14.60;99.90;;;17.53;61.50;97752.72;4995999;28;20057;-36
2023/05/09 04:02:16;;;;;;;16.98;12.65;;;14.60;99.90;;;17.58;61.31;97754.78;4996222;28;20606;-36
2023/05/09 04:04:46;;;;;;;17.05;12.18;;;14.70;99.90;;;17.59;61.22;97754.59;4980130;28;20062;-36
2023/05/09 04:07:16;;;;;;;18.02;12.43;;;14.70;99.90;;;17.61;61.46;97754.38;4988211;28;20042;-36
2023/05/09 04:09:47;;;;;;;17.52;12.73;;;14.70;99.90;;;17.62;61.52;97753.34;4995815;28;20429;-36
2023/05/09 04:12:15;;;;;;;16.73;11.85;;;14.70;99.90;;;17.63;61.30;97741.53;4977472;28;20286;-36
2023/05/09 04:14:43;;;;;;;16.15;12.52;;;14.70;99.90;;;17.63;61.18;97741.53;4995898;28;20540;-36
2023/05/09 04:17:13;;;;;;;17.23;12.10;;;14.80;99.90;;;17.65;61.28;97745.69;5005268;28;20516;-36
2023/05/09 04:19:41;;;;;;;17.95;13.95;;;14.70;99.90;;;17.65;61.07;97748.38;4995504;28;20053;-36
2023/05/09 04:22:09;;;;;;;17.20;12.93;;;14.70;99.90;;;17.64;61.19;97745.88;4995009;28;20046;-36
2023/05/09 04:24:36;;;;;;;17.25;12.75;;;14.70;99.90;;;17.64;61.18;97748.56;4996000;28;20052;-36
2023/05/09 04:27:04;;;;;;;15.75;12.88;;;14.70;99.90;;;17.62;61.23;97746.13;4995330;28;20073;-36
2023/05/09 04:29:32;;;;;;;15.85;12.30;;;14.70;99.90;;;17.63;61.15;97747.75;5013160;28;20042;-36
2023/05/09 04:32:01;;;;;;;18.55;13.18;;;14.70;99.90;;;17.62;61.32;97742.56;4995740;28;20060;-36
2023/05/09 04:34:28;;;;;;;16.05;11.60;;;14.70;99.90;;;17.62;61.04;97740.72;4995206;28;20049;-36
2023/05/09 04:37:01;;;;;;;15.68;11.13;;;14.70;99.90;;;17.63;61.18;97745.06;4994923;28;20041;-36
2023/05/09 04:39:30;;;;;;;19.85;12.52;;;14.70;99.90;;;17.64;61.13;97748.56;4995146;28;20186;-36
2023/05/09 04:42:05;;;;;;;15.32;12.27;;;14.80;99.90;;;17.66;61.10;97739.28;4995531;28;20050;-36
2023/05/09 04:44:32;;;;;;;16.40;11.98;;;14.80;99.90;;;17.67;61.09;97748.19;5013712;28;20061;-36
2023/05/09 04:47:00;;;;;;;15.57;11.10;;;14.90;99.90;;;17.67;61.40;97742.78;5013110;28;20058;-36
2023/05/09 04:49:28;;;;;;;14.80;10.85;;;14.90;99.90;;;17.71;61.23;97752.13;4995355;28;20418;-36
2023/05/09 04:51:56;;;;;;;18.17;13.02;;;15.00;99.90;;;17.76;61.19;97744.28;5013005;28;20041;-36
2023/05/09 04:54:24;;;;;;;16.02;11.70;;;15.00;99.90;;;17.76;61.40;97746.97;4995192;28;20061;-37
2023/05/09 04:56:53;;;;;;;13.32;10.48;;;15.10;99.90;;;17.76;61.05;97748.81;4995104;28;20046;-36
2023/05/09 04:59:35;;;;;;;14.43;10.45;;;15.10;99.90;;;17.75;61.16;97745.28;4994524;28;20046;-36
2023/05/09 05:02:03;;;;;;;14.23;10.88;;;15.00;99.90;;;17.78;61.20;97744.91;4977948;28;20042;-36
2023/05/09 05:04:31;;;;;;;19.05;12.00;;;15.00;99.90;;;17.83;60.94;97741.56;5013119;28;20451;-36
2023/05/09 05:07:00;;;;;;;14.57;11.00;;;15.00;99.90;;;17.85;60.93;97745.75;4994670;28;20050;-36
2023/05/09 05:09:28;;;;;;;14.38;9.75;;;15.00;99.90;;;17.86;60.98;97744.72;4978889;28;20057;-36
2023/05/09 05:11:56;;;;;;;13.75;9.90;;;15.00;99.90;;;17.87;60.91;97749.09;4994328;28;20050;-36
2023/05/09 05:14:31;;;;;;;14.73;11.00;;;15.00;99.90;;;17.86;60.83;97744.72;4995489;28;20085;-36
2023/05/09 05:16:59;;;;;;;12.40;9.80;;;15.10;99.90;;;17.83;61.13;97747.78;4995129;28;20526;-36
2023/05/09 05:19:26;;;;;;;14.40;9.45;;;15.10;99.90;;;17.79;61.28;97745.72;4993438;28;20038;-36
2023/05/09 05:21:55;;;;;;;12.50;9.43;;;15.20;99.90;;;17.76;61.47;97738.88;5009357;28;20046;-36
2023/05/09 05:24:23;;;;;;;12.30;9.05;;;15.20;99.90;;;17.81;61.37;97747.16;4995364;28;20050;-36
2023/05/09 05:26:51;;;;;;;14.65;10.77;;;15.30;99.90;;;17.85;61.41;97742.22;4994204;28;20417;-36
2023/05/09 05:29:19;;;;;;;13.45;10.65;;;15.30;99.90;;;17.93;61.30;97742.03;4994293;28;20041;-36
2023/05/09 05:31:46;;;;;;;14.55;11.07;;;15.30;99.90;;;18.00;61.05;97740.16;4994407;28;20090;-36
2023/05/09 05:34:15;;;;;;;15.43;10.90;;;15.40;99.90;;;18.06;60.83;97742.03;4994207;28;20081;-36
2023/05/09 05:36:44;;;;;;;12.90;10.43;;;15.40;99.90;;;18.13;60.83;97741.22;4975195;28;20046;-36
2023/05/09 05:39:11;;;;;;;16.88;11.60;;;15.40;99.90;;;18.19;60.76;97748.47;5010887;28;20030;-36
2023/05/09 05:41:39;;;;;;;17.15;11.52;;;15.40;99.90;;;18.23;60.48;97736.25;4994409;28;20059;-36
2023/05/09 05:44:07;;;;;;;14.77;11.65;;;15.50;99.90;;;18.27;60.54;97735.63;4994011;28;20050;-36
2023/05/09 05:46:35;;;;;;;15.82;11.73;;;15.50;99.90;;;18.30;60.56;97729.00;4994424;28;20517;-36
2023/05/09 05:49:03;;;;;;;15.27;11.10;;;15.60;99.90;;;18.32;60.46;97734.16;4993908;28;20045;-36
2023/05/09 05:51:31;;;;;;;13.43;9.35;;;15.60;99.90;;;18.33;60.46;97733.13;5012010;28;20050;-36
2023/05/09 05:53:59;;;;;;;13.65;10.60;;;15.70;99.90;;;18.34;60.49;97732.09;4993832;28;20057;-36
2023/05/09 05:56:27;;;;;;;12.13;9.40;;;15.70;99.90;;;18.33;60.57;97728.56;4994300;28;20064;-36
2023/05/09 05:58:56;;;;;;;11.50;9.60;;;15.70;99.90;;;18.35;60.52;97725.66;4993389;28;20045;-36
2023/05/09 06:01:23;;;;;;;12.93;8.82;;;15.70;99.90;;;18.38;60.61;97731.47;5011933;28;20037;-36
2023/05/09 06:03:54;;;;;;;13.57;10.43;;;15.80;99.90;;;18.41;60.47;97725.66;4994316;28;20060;-36
2023/05/09 06:06:26;;;;;;;11.07;8.40;;;15.80;99.90;;;18.46;60.28;97719.66;4993844;28;20050;-36
2023/05/09 06:08:54;;;;;;;11.38;8.80;;;15.80;99.90;;;18.38;60.45;97718.00;4993879;28;20057;-36
2023/05/09 06:11:22;;;;;;;11.98;8.43;;;15.90;99.90;;;18.37;60.43;97720.91;4994261;28;20049;-36
2023/05/09 06:13:50;;;;;;;12.13;9.05;;;15.90;99.90;;;18.38;60.64;97717.16;4993520;28;20478;-36
2023/05/09 06:16:17;;;;;;;12.15;8.57;;;15.90;99.90;;;18.41;60.46;97717.56;5011654;28;20509;-37
2023/05/09 06:18:50;;;;;;;13.57;8.55;;;15.90;99.90;;;18.50;60.50;97715.50;4986158;28;20053;-36
2023/05/09 06:21:22;;;;;;;11.27;8.68;;;16.00;99.90;;;18.55;60.48;97712.16;5004024;28;20038;-36
2023/05/09 06:23:50;;;;;;;11.73;8.65;;;16.00;99.90;;;18.61;60.41;97714.00;5010814;28;20052;-36
2023/05/09 06:26:36;;;;;;;13.05;9.05;;;16.00;99.90;;;18.69;60.28;97711.09;5006152;28;20050;-36
2023/05/09 06:29:07;;;;;;;12.15;8.25;;;16.10;99.90;;;18.77;60.16;97710.88;4993603;28;20065;-36
2023/05/09 06:31:37;;;;;;;10.65;8.23;;;16.10;99.90;;;18.85;59.88;97709.84;5011610;28;20049;-36
2023/05/09 06:34:05;;;;;;;11.10;9.13;;;16.20;99.90;;;18.87;59.81;97705.88;5011152;28;20038;-36
2023/05/09 06:36:33;;;;;;;10.13;8.65;;;16.20;99.90;;;18.91;59.83;97703.59;5011530;28;20054;-36
2023/05/09 06:39:01;;;;;;;9.82;8.02;;;16.30;99.90;;;18.96;59.60;97709.19;5011255;28;20038;-36
2023/05/09 06:41:29;;;;;;;9.25;7.50;;;16.30;99.90;;;19.05;59.82;97702.47;5002400;28;20034;-36
2023/05/09 06:43:56;;;;;;;11.77;8.60;;;16.30;99.90;;;19.14;59.52;97702.25;5011353;28;20053;-36
2023/05/09 06:46:24;;;;;;;11.10;8.20;;;16.40;99.90;;;19.12;59.32;97699.78;5011272;28;20042;-36
2023/05/09 06:48:51;;;;;;;9.73;7.10;;;16.50;99.90;;;19.15;59.42;97693.91;5011144;28;20045;-36
2023/05/09 06:51:19;;;;;;;8.73;7.45;;;16.50;99.90;;;19.23;59.25;97691.00;5005444;28;20048;-36
2023/05/09 06:53:46;;;;;;;9.07;7.43;;;16.70;99.90;;;19.29;59.27;97689.31;5015254;28;20056;-36
2023/05/09 06:56:15;;;;;;;7.85;6.43;;;16.70;99.90;;;19.44;59.24;97689.84;5015141;28;20493;-36
2023/05/09 06:58:44;;;;;;;8.38;6.85;;;16.90;99.90;;;19.58;59.04;97692.44;4997284;28;20046;-36
2023/05/09 07:01:12;;;;;;;8.88;6.95;;;17.00;99.90;;;19.66;59.09;97676.00;5013624;28;20046;-36
2023/05/09 07:03:39;;;;;;;7.57;6.78;;;17.20;99.90;;;19.70;58.81;97681.75;5015105;28;20056;-36
2023/05/09 07:06:07;;;;;;;7.97;6.00;;;17.20;99.90;;;19.76;58.80;97676.38;5014409;28;20390;-36
2023/05/09 07:08:35;;;;;;;7.30;6.43;;;17.30;99.90;;;19.82;58.59;97678.19;5014801;28;20043;-36
2023/05/09 07:11:02;;;;;;;7.80;6.43;;;17.40;99.90;;;19.90;58.72;97678.97;5014775;28;20163;-36
2023/05/09 07:13:30;;;;;;;8.55;6.60;;;17.50;99.90;;;19.96;58.36;97675.38;5005544;28;20046;-36
2023/05/09 07:15:58;;;;;;;8.27;6.00;;;17.60;99.90;;;20.02;58.17;97672.59;5014332;28;20050;-36
2023/05/09 07:18:26;;;;;;;7.65;6.85;;;17.70;99.90;;;20.09;58.00;97667.16;5014635;28;20042;-36
2023/05/09 07:20:53;;;;;;;8.85;6.57;;;17.70;99.90;;;20.16;58.35;97665.22;5014829;28;20045;-36
2023/05/09 07:23:21;;;;;;;9.07;6.82;;;17.80;99.90;;;20.30;58.31;97657.81;5015063;28;20421;-36
2023/05/09 07:25:58;;;;;;;9.45;6.72;;;17.90;99.90;;;20.43;57.69;97654.97;5014481;28;20046;-36
2023/05/09 07:28:25;;;;;;;7.15;6.10;;;18.00;99.90;;;20.48;57.18;97653.47;5006640;28;20517;-36
2023/05/09 07:30:56;;;;;;;7.05;6.35;;;18.00;99.90;;;20.50;57.24;97643.28;5014702;28;20046;-36
2023/05/09 07:33:24;;;;;;;7.75;6.03;;;17.90;99.90;;;20.51;56.91;97645.75;5006880;28;20390;-36
2023/05/09 07:35:52;;;;;;;7.22;6.40;;;18.00;99.90;;;20.54;57.20;97644.47;5014509;28;20454;-36
2023/05/09 07:38:19;;;;;;;7.03;6.05;;;18.00;99.90;;;20.57;56.94;97638.59;5014234;28;20034;-36
2023/05/09 07:40:47;;;;;;;8.32;7.00;;;18.00;99.90;;;20.53;56.69;97634.69;4997027;28;20437;-36
2023/05/09 07:43:14;;;;;;;12.10;7.22;;;18.00;99.90;;;20.54;56.95;97628.25;5014207;28;20045;-36
2023/05/09 07:45:42;;;;;;;7.97;6.78;;;18.00;99.90;;;20.56;57.25;97623.44;5013967;28;20493;-36
2023/05/09 07:48:10;;;;;;;7.75;6.82;;;18.00;99.90;;;20.61;56.41;97618.22;5014070;28;20493;-36
2023/05/09 07:50:38;;;;;;;10.82;8.90;;;18.00;99.90;;;20.65;56.89;97625.63;5014403;28;20054;-36
2023/05/09 07:53:06;;;;;;;11.07;9.38;;;18.10;99.90;;;20.76;56.50;97620.50;5005016;28;20049;-36
2023/05/09 07:55:33;;;;;;;9.93;7.85;;;18.20;99.90;;;20.82;56.18;97616.88;5014227;28;20076;-36
2023/05/09 07:58:01;;;;;;;8.85;7.95;;;18.20;99.90;;;20.87;56.28;97606.22;5013696;28;20042;-36
2023/05/09 08:00:29;;;;;;;10.55;8.15;;;18.20;99.90;;;20.91;55.53;97604.72;5014072;28;20037;-36
2023/05/09 08:02:56;;;;;;;12.68;9.93;;;18.30;99.90;;;20.94;55.77;97600.75;5013072;28;20066;-36
2023/05/09 08:05:24;;;;;;;15.50;12.32;;;18.30;99.90;;;20.97;56.23;97595.66;5005413;28;20042;-36
2023/05/09 08:07:52;;;;;;;15.93;13.15;;;18.40;99.90;;;21.03;56.27;97580.41;4996359;28;20940;-36
2023/05/09 08:10:20;;;;;;;16.13;12.65;;;18.50;99.90;;;21.10;55.93;97585.75;5013717;28;20053;-36
2023/05/09 08:12:48;;;;;;;18.92;14.05;;;18.60;99.90;;;21.13;55.40;97586.09;5013945;28;20061;-37
2023/05/09 08:15:16;;;;;;;18.27;13.93;;;18.50;99.90;;;21.17;55.21;97586.44;5013859;28;20085;-36
2023/05/09 08:17:43;;;;;;;18.48;13.10;;;18.60;99.90;;;21.17;55.02;97578.31;5013539;28;20493;-36
2023/05/09 08:20:12;;;;;;;16.33;12.18;;;18.60;99.90;;;21.14;54.92;97573.38;4995801;28;20050;-36
2023/05/09 08:22:39;;;;;;;15.75;11.20;;;18.50;99.90;;;21.14;55.02;97573.38;5009540;28;20041;-36
2023/05/09 08:25:08;;;;;;;12.35;9.30;;;18.60;99.90;;;21.16;55.03;97569.38;5013279;28;20050;-36
2023/05/09 08:27:36;;;;;;;14.23;10.77;;;18.60;99.90;;;21.22;55.05;97563.03;5013284;28;20069;-36
2023/05/09 08:30:05;;;;;;;13.07;10.57;;;18.70;99.90;;;21.28;55.33;97560.47;5013218;28;20497;-36
2023/05/09 08:32:32;;;;;;;14.30;10.82;;;18.70;99.90;;;21.29;54.92;97562.13;5013509;28;20418;-36
2023/05/09 08:35:00;;;;;;;10.68;9.15;;;18.80;99.90;;;21.29;54.38;97549.41;4995524;28;20050;-36
2023/05/09 08:37:28;;;;;;;11.77;9.07;;;18.80;99.90;;;21.33;54.78;97547.91;5005479;28;20041;-36
2023/05/09 08:39:55;;;;;;;12.85;9.25;;;18.90;99.90;;;21.40;53.89;97551.34;5013238;28;20041;-36
2023/05/09 08:42:24;;;;;;;10.15;8.60;;;18.90;99.90;;;21.45;54.03;97547.94;5013018;28;20045;-36
2023/05/09 08:44:53;;;;;;;10.18;8.57;;;19.00;99.90;;;21.55;53.77;97545.47;5004011;28;20508;-37
2023/05/09 08:47:21;;;;;;;10.70;9.32;;;19.00;99.90;;;21.67;53.65;97545.47;5012826;28;20049;-36
2023/05/09 08:49:50;;;;;;;12.35;8.23;;;19.20;99.90;;;21.77;53.37;97553.03;4994946;28;20054;-36
2023/05/09 08:52:17;;;;;;;12.23;8.98;;;19.30;99.90;;;21.86;53.26;97543.47;5011407;28;20064;-36
2023/05/09 08:54:45;;;;;;;14.30;8.57;;;19.40;99.90;;;21.95;52.80;97544.78;5003579;28;20425;-36
2023/05/09 08:57:14;;;;;;;9.20;7.05;;;19.50;99.90;;;22.02;52.45;97544.66;4995345;28;20105;-36
2023/05/09 08:59:42;;;;;;;8.80;7.25;;;19.60;99.90;;;22.03;52.03;97541.72;4993775;28;20051;-36
2023/05/09 09:02:13;;;;;;;8.75;7.28;;;19.50;99.90;;;21.99;51.98;97534.31;5010344;28;20054;-36
2023/05/09 09:04:41;;;;;;;8.27;6.55;;;19.50;99.90;;;21.98;51.58;97541.63;5003987;28;20046;-37
2023/05/09 09:07:09;;;;;;;8.48;6.50;;;19.50;99.90;;;21.95;51.40;97544.78;4986591;28;20054;-36
2023/05/09 09:09:42;;;;;;;12.50;6.68;;;19.40;99.90;;;21.93;51.49;97536.06;5012456;28;20050;-37
2023/05/09 09:12:12;;;;;;;7.97;4.82;;;19.40;99.90;;;21.89;51.06;97543.03;4982562;28;20038;-36
2023/05/09 09:14:47;;;;;;;6.90;6.00;;;19.30;99.90;;;21.81;51.18;97532.56;5003428;28;20061;-36
2023/05/09 09:17:19;;;;;;;11.60;5.88;;;19.20;99.90;;;21.76;51.69;97533.25;5003515;28;20045;-36
2023/05/09 09:19:52;;;;;;;11.63;7.77;;;19.10;99.90;;;21.72;51.84;97529.34;5012513;28;20415;-36
2023/05/09 09:22:21;;;;;;;18.20;10.13;;;18.90;99.90;;;21.72;52.09;97521.22;5012642;28;20289;-36
2023/05/09 09:24:49;;;;;;;13.60;9.10;;;18.90;99.90;;;21.73;52.50;97520.19;5012308;28;20417;-36
2023/05/09 09:27:18;;;;;;;11.93;7.28;;;19.00;99.90;;;21.81;52.44;97511.69;5002372;28;20042;-36
2023/05/09 09:29:45;;;;;;;8.50;6.65;;;19.10;99.90;;;21.93;52.39;97510.88;4991225;28;20046;-37
2023/05/09 09:32:13;;;;;;;6.97;6.28;;;19.20;99.90;;;22.03;52.15;97511.91;5010620;28;20050;-36
2023/05/09 09:34:41;;;;;;;10.38;7.82;;;19.40;99.90;;;22.12;51.34;97501.53;5011672;28;20052;-36
2023/05/09 09:37:08;;;;;;;9.48;7.63;;;19.60;99.90;;;22.20;51.36;97490.28;5012026;28;20053;-37
2023/05/09 09:39:36;;;;;;;9.38;6.85;;;19.70;99.90;;;22.31;51.67;97483.22;4992242;28;20061;-36
2023/05/09 09:42:11;;;;;;;10.98;8.38;;;19.80;99.90;;;22.38;50.99;97480.38;5008568;28;20046;-37
2023/05/09 09:44:38;;;;;;;8.02;6.35;;;19.90;99.90;;;22.42;50.02;97493.19;5012439;28;20461;-36
2023/05/09 09:47:44;;;;;;;8.07;7.03;;;19.90;99.20;;;22.41;50.86;97475.28;5007527;28;20037;-39
2023/05/09 09:50:17;;;;;;;9.80;6.68;;;20.00;97.90;;;22.50;50.48;97475.72;4971312;28;20054;-46
2023/05/09 09:52:54;;;;;;;9.18;6.95;;;20.00;98.00;;;22.60;50.76;97470.50;4973178;28;20499;-46
2023/05/09 09:55:23;;;;;;;8.43;6.78;;;20.20;97.20;;;22.61;49.76;97464.00;4972935;28;20047;-45
2023/05/09 09:57:51;;;;;;;7.30;6.10;;;20.20;96.20;;;22.66;49.41;97455.13;4972647;28;20043;-45
2023/05/09 10:00:26;;;;;;;9.13;6.70;;;20.30;95.00;;;22.77;49.41;97453.44;4972766;28;20047;-44
2023/05/09 10:02:57;;;;;;;6.80;6.03;;;20.40;92.70;;;22.85;49.36;97452.22;4972966;28;20050;-46
2023/05/09 10:05:29;;;;;;;5.68;5.00;;;20.50;94.30;;;22.89;49.04;97454.19;4971627;28;20047;-46
2023/05/09 10:07:59;;;;;;;7.53;5.00;;;20.50;90.80;;;22.92;49.07;97448.28;4972659;28;20062;-47
2023/05/09 10:10:32;;;;;;;7.38;5.90;;;20.60;89.50;;;22.97;49.02;97444.81;4972716;28;20069;-47
2023/05/09 10:13:10;;;;;;;7.57;6.00;;;20.60;88.10;;;23.04;48.88;97444.69;4955179;28;20128;-47
2023/05/09 10:15:40;;;;;;;6.68;5.93;;;20.60;87.80;;;23.04;48.49;97440.09;4948419;28;20047;-47
2023/05/09 10:18:25;;;;;;;7.68;6.93;;;20.60;88.40;;;23.12;48.22;97436.13;4971370;28;20047;-46
2023/05/09 10:20:59;;;;;;;9.23;7.13;;;20.60;86.80;;;23.14;48.57;97428.56;4972878;28;20054;-44